createdAt,value
2018-07-25T00:00:37.379Z,19.17
2018-07-25T00:03:06.873Z,19.15
2018-07-25T00:05:36.363Z,19.13
2018-07-25T00:08:05.839Z,19.11
2018-07-25T00:10:40.559Z,19.05
2018-07-25T00:13:09.887Z,18.98
2018-07-25T00:15:39.278Z,18.93
2018-07-25T00:18:08.759Z,18.94
2018-07-25T00:20:38.214Z,18.94
2018-07-25T00:23:07.697Z,18.92
2018-07-25T00:25:37.138Z,18.81
2018-07-25T00:28:06.482Z,18.80
2018-07-25T00:30:35.864Z,18.87
2018-07-25T00:33:05.216Z,18.78
2018-07-25T00:35:34.634Z,18.81
2018-07-25T00:38:04.038Z,18.76
2018-07-25T00:40:33.304Z,18.74
2018-07-25T00:43:02.655Z,18.73
2018-07-25T00:45:32.047Z,18.63
2018-07-25T00:48:01.170Z,18.67
2018-07-25T00:50:30.575Z,18.63
2018-07-25T00:52:59.893Z,18.62
2018-07-25T00:55:29.331Z,18.59
2018-07-25T00:57:58.553Z,18.55
2018-07-25T01:00:27.887Z,18.52
2018-07-25T01:02:57.148Z,18.55
2018-07-25T01:05:26.467Z,18.46
2018-07-25T01:07:55.751Z,18.45
2018-07-25T01:10:25.131Z,18.33
2018-07-25T01:12:54.400Z,18.43
2018-07-25T01:15:23.691Z,18.43
2018-07-25T01:17:53.015Z,18.38
2018-07-25T01:20:22.359Z,18.32
2018-07-25T01:22:51.667Z,18.34
2018-07-25T01:25:20.945Z,18.28
2018-07-25T01:27:50.326Z,18.36
2018-07-25T01:30:19.717Z,18.35
2018-07-25T01:32:49.060Z,18.37
2018-07-25T01:35:18.450Z,18.37
2018-07-25T01:37:47.738Z,18.22
2018-07-25T01:40:17.095Z,18.16
2018-07-25T01:42:46.402Z,18.15
2018-07-25T01:45:15.808Z,18.12
2018-07-25T01:47:45.105Z,18.17
2018-07-25T01:50:14.418Z,18.06
2018-07-25T01:52:43.930Z,18.16
2018-07-25T01:55:13.205Z,18.10
2018-07-25T01:57:42.501Z,18.07
2018-07-25T02:00:11.843Z,18.01
2018-07-25T02:02:41.161Z,17.92
2018-07-25T02:05:10.460Z,17.86
2018-07-25T02:07:39.753Z,17.85
2018-07-25T02:10:09.070Z,17.85
2018-07-25T02:12:38.438Z,17.80
2018-07-25T02:15:08.520Z,17.86
2018-07-25T02:17:44.364Z,17.89
2018-07-25T02:20:13.683Z,17.93
2018-07-25T02:22:43.091Z,17.87
2018-07-25T02:25:12.421Z,17.81
2018-07-25T02:27:41.747Z,17.83
2018-07-25T02:30:11.064Z,17.71
2018-07-25T02:32:40.345Z,17.72
2018-07-25T02:35:09.659Z,17.75
2018-07-25T02:37:39.003Z,17.73
2018-07-25T02:40:08.342Z,17.70
2018-07-25T02:42:37.742Z,17.72
2018-07-25T02:45:07.119Z,17.75
2018-07-25T02:47:36.413Z,17.67
2018-07-25T02:50:06.259Z,17.66
2018-07-25T02:52:35.579Z,17.65
2018-07-25T02:55:05.026Z,17.64
2018-07-25T02:57:34.365Z,17.60
2018-07-25T03:00:03.831Z,17.54
2018-07-25T03:02:33.167Z,17.51
2018-07-25T03:05:02.606Z,17.60
2018-07-25T03:07:31.921Z,17.52
2018-07-25T03:10:01.293Z,17.57
2018-07-25T03:12:30.633Z,17.57
2018-07-25T03:15:00.042Z,17.65
2018-07-25T03:17:29.452Z,17.64
2018-07-25T03:19:58.861Z,17.63
2018-07-25T03:22:28.294Z,17.53
2018-07-25T03:24:57.583Z,17.59
2018-07-25T03:27:26.880Z,17.57
2018-07-25T03:29:56.186Z,17.62
2018-07-25T03:32:25.516Z,17.68
2018-07-25T03:34:54.850Z,17.66
2018-07-25T03:37:24.533Z,17.74
2018-07-25T03:39:53.890Z,17.76
2018-07-25T03:42:23.210Z,17.72
2018-07-25T03:44:52.734Z,17.81
2018-07-25T03:47:22.030Z,17.81
2018-07-25T03:49:51.406Z,17.78
2018-07-25T03:52:20.714Z,17.80
2018-07-25T03:54:50.091Z,17.77
2018-07-25T03:57:19.383Z,17.81
2018-07-25T03:59:48.711Z,17.86
2018-07-25T04:02:18.115Z,17.84
2018-07-25T04:04:47.498Z,17.80
2018-07-25T04:07:16.775Z,17.75
2018-07-25T04:09:46.136Z,17.73
2018-07-25T04:12:15.371Z,17.66
2018-07-25T04:14:44.828Z,17.70
2018-07-25T04:17:14.104Z,17.78
2018-07-25T04:19:43.519Z,17.92
2018-07-25T04:22:12.890Z,17.97
2018-07-25T04:24:42.211Z,17.97
2018-07-25T04:27:11.453Z,17.99
2018-07-25T04:29:40.735Z,18.02
2018-07-25T04:32:10.032Z,18.04
2018-07-25T04:34:39.406Z,18.08
2018-07-25T04:37:08.770Z,18.10
2018-07-25T04:39:38.049Z,18.21
2018-07-25T04:42:07.362Z,18.27
2018-07-25T04:44:36.875Z,18.28
2018-07-25T04:47:06.109Z,18.33
2018-07-25T04:49:35.450Z,18.32
2018-07-25T04:52:04.783Z,18.43
2018-07-25T04:54:34.045Z,18.53
2018-07-25T04:57:03.362Z,18.64
2018-07-25T04:59:32.690Z,18.77
2018-07-25T05:02:02.054Z,18.87
2018-07-25T05:04:31.498Z,18.98
2018-07-25T05:07:00.814Z,19.16
2018-07-25T05:09:30.089Z,19.84
2018-07-25T05:11:59.817Z,20.51
2018-07-25T05:14:29.061Z,21.09
2018-07-25T05:16:58.488Z,21.67
2018-07-25T05:19:27.897Z,21.80
2018-07-25T05:21:57.257Z,21.97
2018-07-25T05:24:26.485Z,22.36
2018-07-25T05:26:55.786Z,22.39
2018-07-25T05:29:25.138Z,23.18
2018-07-25T05:31:54.448Z,23.07
2018-07-25T05:34:23.690Z,23.44
2018-07-25T05:36:53.074Z,23.82
2018-07-25T05:39:22.423Z,23.21
2018-07-25T05:41:51.476Z,23.47
2018-07-25T05:44:20.789Z,24.09
2018-07-25T05:46:50.354Z,23.67
2018-07-25T05:49:19.639Z,24.11
2018-07-25T05:51:48.905Z,24.69
2018-07-25T05:54:18.166Z,24.57
2018-07-25T05:56:47.462Z,24.26
2018-07-25T05:59:16.665Z,24.51
2018-07-25T06:01:45.952Z,24.49
2018-07-25T06:04:15.189Z,24.67
2018-07-25T06:06:44.442Z,24.58
2018-07-25T06:09:13.746Z,24.83
2018-07-25T06:11:43.100Z,25.22
2018-07-25T06:14:12.431Z,25.46
2018-07-25T06:16:41.710Z,25.28
2018-07-25T06:19:10.975Z,25.43
2018-07-25T06:21:40.259Z,25.34
2018-07-25T06:24:09.560Z,25.20
2018-07-25T06:26:38.896Z,25.72
2018-07-25T06:29:08.130Z,25.89
2018-07-25T06:31:37.428Z,26.47
2018-07-25T06:34:07.426Z,26.32
2018-07-25T06:36:36.981Z,26.24
2018-07-25T06:39:11.055Z,26.16
2018-07-25T06:41:40.492Z,26.30
2018-07-25T06:44:10.618Z,26.18
2018-07-25T06:46:39.959Z,26.01
2018-07-25T06:49:09.264Z,26.58
2018-07-25T06:51:38.534Z,26.28
2018-07-25T06:54:08.169Z,26.29
2018-07-25T06:56:37.388Z,26.61
2018-07-25T06:59:06.678Z,26.53
2018-07-25T07:01:36.109Z,26.46
2018-07-25T07:04:05.534Z,26.80
2018-07-25T07:06:34.940Z,26.91
2018-07-25T07:09:05.222Z,26.79
2018-07-25T07:11:34.650Z,26.81
2018-07-25T07:14:04.092Z,27.15
2018-07-25T07:16:33.453Z,27.08
2018-07-25T07:19:02.791Z,27.12
2018-07-25T07:21:32.120Z,27.25
2018-07-25T07:24:01.566Z,27.27
2018-07-25T07:26:30.948Z,27.63
2018-07-25T07:29:00.232Z,27.54
2018-07-25T07:31:29.692Z,27.41
2018-07-25T07:33:58.927Z,27.46
2018-07-25T07:36:27.939Z,27.62
2018-07-25T07:38:57.285Z,27.89
2018-07-25T07:41:26.657Z,27.56
2018-07-25T07:43:56.060Z,28.20
2018-07-25T07:46:25.487Z,28.33
2018-07-25T07:48:54.910Z,28.17
2018-07-25T07:51:24.314Z,28.08
2018-07-25T07:53:53.664Z,28.33
2018-07-25T07:56:23.003Z,28.43
2018-07-25T07:58:52.385Z,28.07
2018-07-25T08:01:21.905Z,28.71
2018-07-25T08:03:51.313Z,28.70
2018-07-25T08:06:20.645Z,28.24
2018-07-25T08:08:50.080Z,28.67
2018-07-25T08:11:20.336Z,28.66
2018-07-25T08:13:50.627Z,28.85
2018-07-25T08:16:19.975Z,28.84
2018-07-25T08:18:49.239Z,29.05
2018-07-25T08:21:18.521Z,29.08
2018-07-25T08:23:47.777Z,29.43
2018-07-25T08:26:17.054Z,29.22
2018-07-25T08:28:46.382Z,29.69
2018-07-25T08:31:15.688Z,30.07
2018-07-25T08:33:44.991Z,30.26
2018-07-25T08:36:14.222Z,29.84
2018-07-25T08:38:44.717Z,29.50
2018-07-25T08:41:14.021Z,29.55
2018-07-25T08:43:43.535Z,29.70
2018-07-25T08:46:13.243Z,30.06
2018-07-25T08:48:42.505Z,30.11
2018-07-25T08:51:11.745Z,30.36
2018-07-25T08:53:41.018Z,30.31
2018-07-25T08:56:10.283Z,30.66
2018-07-25T08:58:39.539Z,30.70
2018-07-25T09:01:08.962Z,30.86
2018-07-25T09:03:38.291Z,30.37
2018-07-25T09:06:07.866Z,30.51
2018-07-25T09:08:37.165Z,30.36
2018-07-25T09:11:06.700Z,30.77
2018-07-25T09:13:36.007Z,30.91
2018-07-25T09:16:05.395Z,30.78
2018-07-25T09:18:34.711Z,30.63
2018-07-25T09:21:04.118Z,30.93
2018-07-25T09:23:33.417Z,30.77
2018-07-25T09:26:02.839Z,31.04
2018-07-25T09:28:32.144Z,30.50
2018-07-25T09:31:01.503Z,30.62
2018-07-25T09:33:30.800Z,30.85
2018-07-25T09:36:00.150Z,30.98
2018-07-25T09:38:29.406Z,31.09
2018-07-25T09:40:58.878Z,31.09
2018-07-25T09:43:28.163Z,31.04
2018-07-25T09:45:57.589Z,31.11
2018-07-25T09:48:27.003Z,31.32
2018-07-25T09:50:56.343Z,31.42
2018-07-25T09:53:25.814Z,31.67
2018-07-25T09:55:54.998Z,31.42
2018-07-25T09:58:24.446Z,31.30
2018-07-25T10:00:53.846Z,31.64
2018-07-25T10:03:23.034Z,31.67
2018-07-25T10:05:52.341Z,31.41
2018-07-25T10:08:21.637Z,31.61
2018-07-25T10:10:51.912Z,31.34
2018-07-25T10:13:21.417Z,32.05
2018-07-25T10:15:50.656Z,31.64
2018-07-25T10:18:19.955Z,31.86
2018-07-25T10:20:49.336Z,31.89
2018-07-25T10:23:18.636Z,31.81
2018-07-25T10:25:48.228Z,31.86
2018-07-25T10:28:17.606Z,31.86
2018-07-25T10:30:46.874Z,31.61
2018-07-25T10:33:16.150Z,31.61
2018-07-25T10:35:45.423Z,31.66
2018-07-25T10:38:14.679Z,31.89
2018-07-25T10:40:44.015Z,32.20
2018-07-25T10:43:13.258Z,32.45
2018-07-25T10:45:42.572Z,32.45
2018-07-25T10:48:12.030Z,32.33
2018-07-25T10:50:41.312Z,32.16
2018-07-25T10:53:10.794Z,32.65
2018-07-25T10:55:40.111Z,33.01
2018-07-25T10:58:09.362Z,32.62
2018-07-25T11:00:38.838Z,32.26
2018-07-25T11:03:08.367Z,32.28
2018-07-25T11:05:37.766Z,32.40
2018-07-25T11:08:07.163Z,32.46
2018-07-25T11:10:36.201Z,33.02
2018-07-25T11:13:05.673Z,32.98
2018-07-25T11:15:35.118Z,32.39
2018-07-25T11:18:04.530Z,31.84
2018-07-25T11:20:33.875Z,32.20
2018-07-25T11:23:03.344Z,32.56
2018-07-25T11:25:33.238Z,32.50
2018-07-25T11:28:02.595Z,32.02
2018-07-25T11:30:31.922Z,32.26
2018-07-25T11:33:01.297Z,32.55
2018-07-25T11:35:30.846Z,32.76
2018-07-25T11:38:00.470Z,32.95
2018-07-25T11:40:29.873Z,32.84
2018-07-25T11:42:59.206Z,32.84
2018-07-25T11:45:28.674Z,32.89
2018-07-25T11:47:58.030Z,32.87
2018-07-25T11:50:27.419Z,32.80
2018-07-25T11:52:57.097Z,32.97
2018-07-25T11:55:26.521Z,32.48
2018-07-25T11:57:55.850Z,32.39
2018-07-25T12:00:25.227Z,32.99
2018-07-25T12:02:54.977Z,32.68
2018-07-25T12:05:24.354Z,32.80
2018-07-25T12:07:53.753Z,33.05
2018-07-25T12:10:23.071Z,32.83
2018-07-25T12:12:52.434Z,33.26
2018-07-25T12:15:21.840Z,33.34
2018-07-25T12:17:51.140Z,33.09
2018-07-25T12:20:20.653Z,33.51
2018-07-25T12:22:50.056Z,32.93
2018-07-25T12:25:19.449Z,33.31
2018-07-25T12:27:48.787Z,32.77
2018-07-25T12:30:18.090Z,32.24
2018-07-25T12:32:47.389Z,32.98
2018-07-25T12:35:16.683Z,32.67
2018-07-25T12:37:45.984Z,33.14
2018-07-25T12:40:15.466Z,33.18
2018-07-25T12:42:45.036Z,33.02
2018-07-25T12:45:14.874Z,33.45
2018-07-25T12:47:44.194Z,33.51
2018-07-25T12:50:13.504Z,33.39
2018-07-25T12:52:42.905Z,33.29
2018-07-25T12:55:12.229Z,33.08
2018-07-25T12:57:41.543Z,33.54
2018-07-25T13:00:10.991Z,34.04
2018-07-25T13:02:40.399Z,33.28
2018-07-25T13:05:09.790Z,33.74
2018-07-25T13:07:39.081Z,33.02
2018-07-25T13:10:08.498Z,33.71
2018-07-25T13:12:37.853Z,34.04
2018-07-25T13:15:07.409Z,33.72
2018-07-25T13:17:36.695Z,33.60
2018-07-25T13:20:06.962Z,33.67
2018-07-25T13:22:36.275Z,33.99
2018-07-25T13:25:05.945Z,34.24
2018-07-25T13:27:35.329Z,34.11
2018-07-25T13:30:05.387Z,34.04
2018-07-25T13:32:34.852Z,34.07
2018-07-25T13:35:04.127Z,34.14
2018-07-25T13:37:33.436Z,33.84
2018-07-25T13:40:02.786Z,34.29
2018-07-25T13:42:32.063Z,34.43
2018-07-25T13:45:01.396Z,33.77
2018-07-25T13:47:31.042Z,33.60
2018-07-25T13:50:00.372Z,33.95
2018-07-25T13:52:29.745Z,34.34
2018-07-25T13:54:59.062Z,34.54
2018-07-25T13:57:28.306Z,34.28
2018-07-25T13:59:57.580Z,34.13
2018-07-25T14:02:26.713Z,34.54
2018-07-25T14:04:56.048Z,34.56
2018-07-25T14:07:25.327Z,34.82
2018-07-25T14:09:54.688Z,34.39
2018-07-25T14:12:24.108Z,35.14
2018-07-25T14:14:53.463Z,34.81
2018-07-25T14:17:22.840Z,34.83
2018-07-25T14:19:52.379Z,34.12
2018-07-25T14:22:21.846Z,34.17
2018-07-25T14:24:51.248Z,34.02
2018-07-25T14:27:20.775Z,33.88
2018-07-25T14:29:50.102Z,33.28
2018-07-25T14:32:19.438Z,32.42
2018-07-25T14:34:48.855Z,32.25
2018-07-25T14:37:18.171Z,32.13
2018-07-25T14:39:47.841Z,32.14
2018-07-25T14:42:17.100Z,31.86
2018-07-25T14:44:46.863Z,32.51
2018-07-25T14:47:16.325Z,32.01
2018-07-25T14:49:45.747Z,32.56
2018-07-25T14:52:15.104Z,32.93
2018-07-25T14:54:44.453Z,33.45
2018-07-25T14:57:13.794Z,33.78
2018-07-25T14:59:42.848Z,34.34
2018-07-25T15:02:12.262Z,34.45
2018-07-25T15:04:41.544Z,34.08
2018-07-25T15:07:10.938Z,34.30
2018-07-25T15:09:40.270Z,34.61
2018-07-25T15:12:09.576Z,33.50
2018-07-25T15:14:39.407Z,33.24
2018-07-25T15:17:08.662Z,33.64
2018-07-25T15:19:38.619Z,33.62
2018-07-25T15:22:08.002Z,33.23
2018-07-25T15:24:37.235Z,33.02
2018-07-25T15:27:06.626Z,33.00
2018-07-25T15:29:36.079Z,33.38
2018-07-25T15:32:08.809Z,34.10
2018-07-25T15:34:38.136Z,33.79
2018-07-25T15:37:07.294Z,33.86
2018-07-25T15:39:36.604Z,34.01
2018-07-25T15:42:06.147Z,33.79
2018-07-25T15:44:35.494Z,33.53
2018-07-25T15:47:05.094Z,33.47
2018-07-25T15:49:34.382Z,33.82
2018-07-25T15:52:03.727Z,33.71
2018-07-25T15:54:33.591Z,33.63
2018-07-25T15:57:03.012Z,33.72
2018-07-25T15:59:32.407Z,33.26
2018-07-25T16:02:01.692Z,32.93
2018-07-25T16:04:31.179Z,33.47
2018-07-25T16:07:00.583Z,33.77
2018-07-25T16:09:29.950Z,33.69
2018-07-25T16:11:59.339Z,33.66
2018-07-25T16:14:30.027Z,33.68
2018-07-25T16:16:59.461Z,33.64
2018-07-25T16:19:28.750Z,33.43
2018-07-25T16:21:59.589Z,33.33
2018-07-25T16:24:28.941Z,33.22
2018-07-25T16:26:58.218Z,32.84
2018-07-25T16:29:27.597Z,32.32
2018-07-25T16:31:56.999Z,32.54
2018-07-25T16:34:26.322Z,32.79
2018-07-25T16:36:55.803Z,32.74
2018-07-25T16:39:24.974Z,32.52
2018-07-25T16:41:54.324Z,32.52
2018-07-25T16:44:23.707Z,32.63
2018-07-25T16:46:53.097Z,32.50
2018-07-25T16:49:22.511Z,32.59
2018-07-25T16:51:51.842Z,32.41
2018-07-25T16:54:21.226Z,32.44
2018-07-25T16:56:50.660Z,32.47
2018-07-25T16:59:20.054Z,33.19
2018-07-25T17:01:49.426Z,34.16
2018-07-25T17:04:18.673Z,34.81
2018-07-25T17:06:48.114Z,35.45
2018-07-25T17:09:17.441Z,35.44
2018-07-25T17:11:46.572Z,35.57
2018-07-25T17:14:17.207Z,36.00
2018-07-25T17:16:46.634Z,35.45
2018-07-25T17:19:15.870Z,36.11
2018-07-25T17:21:45.250Z,35.64
2018-07-25T17:24:14.559Z,36.06
2018-07-25T17:26:43.824Z,35.68
2018-07-25T17:29:13.153Z,35.42
2018-07-25T17:31:42.477Z,35.48
2018-07-25T17:34:12.085Z,35.10
2018-07-25T17:36:41.328Z,33.92
2018-07-25T17:39:11.731Z,33.15
2018-07-25T17:41:41.984Z,32.67
2018-07-25T17:44:11.302Z,32.63
2018-07-25T17:46:40.616Z,32.34
2018-07-25T17:49:10.276Z,31.92
2018-07-25T17:51:40.582Z,31.64
2018-07-25T17:54:09.849Z,31.48
2018-07-25T17:56:41.668Z,31.30
2018-07-25T17:59:11.237Z,31.20
2018-07-25T18:01:42.019Z,31.17
2018-07-25T18:04:13.319Z,31.05
2018-07-25T18:06:46.908Z,31.01
2018-07-25T18:09:16.209Z,31.03
2018-07-25T18:11:45.580Z,31.18
2018-07-25T18:14:15.865Z,31.06
2018-07-25T18:16:45.852Z,30.99
2018-07-25T18:19:16.041Z,30.94
2018-07-25T18:21:47.567Z,30.75
2018-07-25T18:24:16.896Z,30.47
2018-07-25T18:26:46.131Z,30.23
2018-07-25T18:29:15.407Z,30.29
2018-07-25T18:31:44.796Z,30.22
2018-07-25T18:34:14.110Z,30.02
2018-07-25T18:36:43.436Z,29.80
2018-07-25T18:39:13.203Z,29.75
2018-07-25T18:41:42.604Z,29.60
2018-07-25T18:44:11.894Z,29.39
2018-07-25T18:46:44.158Z,29.25
2018-07-25T18:49:14.954Z,29.15
2018-07-25T18:51:44.257Z,29.01
2018-07-25T18:54:13.998Z,28.96
2018-07-25T18:56:43.266Z,28.93
2018-07-25T18:59:12.499Z,28.79
2018-07-25T19:01:41.912Z,28.70
2018-07-25T19:04:11.265Z,28.59
2018-07-25T19:06:40.742Z,28.46
2018-07-25T19:09:14.877Z,28.34
2018-07-25T19:11:44.311Z,28.35
2018-07-25T19:14:18.809Z,28.44
2018-07-25T19:16:48.218Z,28.23
2018-07-25T19:19:17.536Z,27.50
2018-07-25T19:21:47.022Z,26.80
2018-07-25T19:24:16.379Z,26.26
2018-07-25T19:26:45.805Z,26.10
2018-07-25T19:29:15.541Z,25.59
2018-07-25T19:31:44.874Z,25.43
2018-07-25T19:34:14.304Z,25.28
2018-07-25T19:36:43.745Z,25.15
2018-07-25T19:39:13.037Z,25.00
2018-07-25T19:41:42.684Z,24.84
2018-07-25T19:44:12.267Z,24.74
2018-07-25T19:46:41.593Z,24.61
2018-07-25T19:49:11.153Z,24.50
2018-07-25T19:51:40.513Z,24.43
2018-07-25T19:54:09.830Z,24.37
2018-07-25T19:56:39.260Z,24.35
2018-07-25T19:59:08.702Z,24.31
2018-07-25T20:01:38.046Z,24.27
2018-07-25T20:04:07.395Z,24.34
2018-07-25T20:06:36.795Z,24.35
2018-07-25T20:09:08.655Z,24.19
2018-07-25T20:11:38.103Z,24.11
2018-07-25T20:14:12.722Z,24.05
2018-07-25T20:16:42.508Z,24.08
2018-07-25T20:19:12.319Z,24.04
2018-07-25T20:21:41.621Z,24.01
2018-07-25T20:24:10.975Z,23.99
2018-07-25T20:26:40.208Z,23.97
2018-07-25T20:29:09.465Z,23.93
2018-07-25T20:31:38.795Z,23.96
2018-07-25T20:34:08.106Z,23.92
2018-07-25T20:36:37.366Z,23.85
2018-07-25T20:39:10.866Z,23.89
2018-07-25T20:41:40.683Z,23.87
2018-07-25T20:44:10.883Z,23.81
2018-07-25T20:46:40.322Z,23.83
2018-07-25T20:49:09.666Z,23.80
2018-07-25T20:51:39.024Z,23.81
2018-07-25T20:54:08.334Z,23.79
2018-07-25T20:56:37.616Z,23.80
2018-07-25T20:59:06.966Z,23.81
2018-07-25T21:01:36.269Z,23.86
2018-07-25T21:04:05.678Z,23.86
2018-07-25T21:06:35.018Z,23.82
2018-07-25T21:09:05.588Z,23.79
2018-07-25T21:11:35.156Z,23.73
2018-07-25T21:14:04.535Z,23.67
2018-07-25T21:16:33.876Z,23.58
2018-07-25T21:19:03.201Z,23.63
2018-07-25T21:21:32.459Z,23.65
2018-07-25T21:24:01.682Z,23.65
2018-07-25T21:26:30.990Z,23.71
2018-07-25T21:29:00.417Z,23.75
2018-07-25T21:31:29.740Z,23.77
2018-07-25T21:33:58.770Z,23.75
2018-07-25T21:36:28.080Z,23.75
2018-07-25T21:38:57.345Z,23.69
2018-07-25T21:41:26.654Z,23.68
2018-07-25T21:43:56.014Z,23.61
2018-07-25T21:46:25.324Z,23.58
2018-07-25T21:48:54.620Z,23.56
2018-07-25T21:51:23.915Z,23.49
2018-07-25T21:53:53.218Z,23.46
2018-07-25T21:56:22.616Z,23.44
2018-07-25T21:58:51.819Z,23.37
2018-07-25T22:01:21.175Z,23.32
2018-07-25T22:03:50.427Z,23.32
2018-07-25T22:06:19.612Z,23.25
2018-07-25T22:08:49.010Z,23.20
2018-07-25T22:11:18.309Z,23.11
2018-07-25T22:13:52.710Z,23.10
2018-07-25T22:16:22.179Z,23.06
2018-07-25T22:18:51.457Z,22.96
2018-07-25T22:21:20.707Z,22.96
2018-07-25T22:23:49.978Z,22.94
2018-07-25T22:26:19.221Z,22.99
2018-07-25T22:28:48.456Z,22.90
2018-07-25T22:31:18.004Z,22.80
2018-07-25T22:33:47.249Z,22.77
2018-07-25T22:36:16.504Z,22.74
2018-07-25T22:38:45.733Z,22.64
2018-07-25T22:41:15.006Z,22.54
2018-07-25T22:43:44.302Z,22.52
2018-07-25T22:46:14.038Z,22.46
2018-07-25T22:48:43.305Z,22.32
2018-07-25T22:51:12.541Z,22.24
2018-07-25T22:53:42.606Z,22.24
2018-07-25T22:56:11.773Z,22.16
2018-07-25T22:58:41.033Z,22.07
2018-07-25T23:01:10.270Z,22.03
2018-07-25T23:03:39.486Z,21.97
2018-07-25T23:06:08.691Z,21.94
2018-07-25T23:08:37.957Z,21.87
2018-07-25T23:11:07.186Z,21.79
2018-07-25T23:13:36.551Z,21.59
2018-07-25T23:16:06.041Z,21.73
2018-07-25T23:18:35.343Z,21.71
2018-07-25T23:21:04.349Z,21.68
2018-07-25T23:23:33.611Z,21.54
2018-07-25T23:26:02.881Z,21.51
2018-07-25T23:28:32.153Z,21.52
2018-07-25T23:31:01.433Z,21.54
2018-07-25T23:33:30.798Z,21.56
2018-07-25T23:36:00.042Z,21.59
2018-07-25T23:38:29.476Z,21.57
2018-07-25T23:40:58.726Z,21.48
2018-07-25T23:43:28.058Z,21.40
2018-07-25T23:45:57.274Z,21.36
2018-07-25T23:48:26.537Z,21.33
2018-07-25T23:50:55.759Z,21.31
2018-07-25T23:53:25.042Z,21.34
2018-07-25T23:55:54.276Z,21.24
2018-07-25T23:58:24.187Z,21.18
